createdAt,value
2022-10-10T00:01:32.474Z,1.50
2022-10-10T00:04:01.788Z,1.30
2022-10-10T00:06:33.036Z,1.60
2022-10-10T00:11:30.626Z,1.30
2022-10-10T00:13:58.753Z,1.20
2022-10-10T00:16:26.625Z,1.35
2022-10-10T00:18:56.252Z,1.20
2022-10-10T00:21:24.143Z,1.55
2022-10-10T00:23:52.460Z,2.00
2022-10-10T00:26:20.179Z,1.70
2022-10-10T00:28:48.495Z,1.50
2022-10-10T00:31:16.847Z,1.30
2022-10-10T00:33:44.872Z,1.50
2022-10-10T00:36:12.700Z,1.50
2022-10-10T00:38:40.862Z,1.50
2022-10-10T00:41:08.639Z,1.38
2022-10-10T00:43:36.406Z,1.23
2022-10-10T00:46:04.209Z,1.80
2022-10-10T00:48:41.467Z,1.30
2022-10-10T00:51:14.578Z,1.27
2022-10-10T00:53:46.349Z,1.40
2022-10-10T00:58:45.312Z,1.45
2022-10-10T01:01:13.555Z,1.50
2022-10-10T01:03:41.652Z,1.67
2022-10-10T01:06:09.607Z,1.70
2022-10-10T01:08:37.529Z,1.48
2022-10-10T01:11:08.143Z,1.70
2022-10-10T01:14:05.340Z,2.10
2022-10-10T01:17:02.161Z,1.65
2022-10-10T01:19:48.421Z,1.48
2022-10-10T01:22:25.287Z,1.38
2022-10-10T01:25:05.201Z,1.55
2022-10-10T01:27:52.315Z,1.30
2022-10-10T01:30:24.307Z,1.80
2022-10-10T01:33:17.956Z,1.40
2022-10-10T01:36:03.970Z,1.70
2022-10-10T01:38:43.201Z,1.42
2022-10-10T01:41:15.231Z,1.48
2022-10-10T01:43:43.383Z,1.55
2022-10-10T01:46:19.087Z,1.70
2022-10-10T01:48:50.407Z,1.40
2022-10-10T01:51:59.630Z,1.45
2022-10-10T01:54:41.857Z,1.70
2022-10-10T01:57:27.656Z,1.75
2022-10-10T02:00:08.830Z,1.40
2022-10-10T02:03:05.790Z,1.90
2022-10-10T02:05:44.215Z,1.55
2022-10-10T02:08:15.732Z,1.60
2022-10-10T02:10:55.943Z,1.88
2022-10-10T02:13:26.527Z,1.50
2022-10-10T02:15:55.884Z,2.00
2022-10-10T02:18:27.890Z,1.77
2022-10-10T02:20:56.386Z,1.58
2022-10-10T02:23:24.429Z,1.50
2022-10-10T02:25:54.344Z,1.92
2022-10-10T02:28:27.669Z,1.83
2022-10-10T02:30:58.418Z,1.67
2022-10-10T02:33:36.654Z,1.60
2022-10-10T02:36:05.222Z,1.80
2022-10-10T02:38:32.868Z,1.80
2022-10-10T02:41:04.166Z,2.10
2022-10-10T02:43:35.980Z,1.70
2022-10-10T02:46:08.784Z,1.55
2022-10-10T02:48:36.912Z,1.98
2022-10-10T02:51:05.052Z,1.85
2022-10-10T02:53:33.226Z,1.65
2022-10-10T02:56:01.126Z,1.70
2022-10-10T02:58:29.216Z,1.75
2022-10-10T03:00:57.294Z,1.90
2022-10-10T03:03:25.904Z,1.55
2022-10-10T03:05:53.847Z,1.83
2022-10-10T03:08:21.761Z,2.20
2022-10-10T03:11:00.633Z,1.92
2022-10-10T03:13:28.469Z,1.70
2022-10-10T03:15:56.269Z,1.90
2022-10-10T03:18:24.585Z,2.60
2022-10-10T03:20:54.356Z,1.85
2022-10-10T03:23:23.250Z,2.05
2022-10-10T03:25:51.136Z,1.80
2022-10-10T03:28:18.953Z,1.73
2022-10-10T03:30:47.187Z,2.22
2022-10-10T03:33:15.008Z,1.60
2022-10-10T03:35:42.784Z,1.75
2022-10-10T03:38:12.074Z,1.85
2022-10-10T03:40:41.480Z,2.10
2022-10-10T03:43:10.776Z,1.77
2022-10-10T03:45:39.222Z,2.55
2022-10-10T03:48:07.018Z,2.17
2022-10-10T03:50:34.845Z,1.80
2022-10-10T03:53:02.837Z,1.60
2022-10-10T03:55:30.807Z,1.65
2022-10-10T03:57:58.739Z,2.20
2022-10-10T04:00:26.732Z,2.15
2022-10-10T04:02:54.653Z,2.25
2022-10-10T04:05:22.589Z,1.90
2022-10-10T04:07:50.402Z,2.13
2022-10-10T04:10:18.511Z,1.60
2022-10-10T04:12:46.700Z,2.15
2022-10-10T04:15:14.660Z,1.85
2022-10-10T04:17:42.506Z,1.90
2022-10-10T04:20:10.583Z,2.15
2022-10-10T04:22:38.545Z,1.70
2022-10-10T04:25:06.800Z,1.85
2022-10-10T04:27:34.639Z,1.88
2022-10-10T04:30:02.905Z,2.00
2022-10-10T04:32:30.743Z,2.10
2022-10-10T04:34:58.699Z,1.95
2022-10-10T04:37:26.586Z,2.20
2022-10-10T04:39:54.457Z,2.40
2022-10-10T04:42:22.384Z,2.00
2022-10-10T04:44:50.225Z,2.20
2022-10-10T04:47:18.318Z,2.35
2022-10-10T04:49:46.247Z,2.03
2022-10-10T04:52:14.194Z,2.00
2022-10-10T04:54:41.968Z,2.10
2022-10-10T04:57:10.088Z,2.22
2022-10-10T04:59:38.187Z,2.55
2022-10-10T05:02:06.143Z,1.92
2022-10-10T05:04:34.272Z,2.40
2022-10-10T05:07:02.130Z,2.47
2022-10-10T05:09:29.812Z,2.00
2022-10-10T05:11:57.643Z,2.30
2022-10-10T05:14:25.587Z,2.38
2022-10-10T05:16:53.454Z,2.33
2022-10-10T05:19:21.378Z,2.15
2022-10-10T05:21:49.153Z,2.22
2022-10-10T05:24:16.984Z,2.20
2022-10-10T05:26:44.820Z,2.70
2022-10-10T05:29:12.733Z,3.08
2022-10-10T05:31:40.799Z,2.17
2022-10-10T05:34:14.356Z,2.38
2022-10-10T05:36:42.771Z,2.25
2022-10-10T05:39:10.912Z,2.33
2022-10-10T05:41:39.020Z,2.38
2022-10-10T05:44:06.726Z,1.88
2022-10-10T05:46:34.522Z,2.60
2022-10-10T05:49:02.187Z,2.35
2022-10-10T05:51:29.993Z,2.10
2022-10-10T05:53:58.137Z,2.10
2022-10-10T05:56:25.877Z,2.65
2022-10-10T05:58:53.823Z,2.00
2022-10-10T06:01:21.769Z,2.85
2022-10-10T06:03:53.015Z,2.15
2022-10-10T06:06:20.940Z,2.42
2022-10-10T06:08:48.837Z,2.28
2022-10-10T06:11:17.682Z,2.17
2022-10-10T06:13:45.778Z,2.42
2022-10-10T06:16:13.738Z,2.38
2022-10-10T06:18:41.607Z,1.70
2022-10-10T06:21:09.834Z,2.60
2022-10-10T06:23:37.704Z,2.30
2022-10-10T06:26:05.789Z,2.30
2022-10-10T06:28:33.777Z,2.42
2022-10-10T06:31:02.917Z,2.70
2022-10-10T06:33:30.932Z,2.60
2022-10-10T06:35:58.821Z,2.25
2022-10-10T06:38:27.893Z,2.42
2022-10-10T06:41:00.277Z,2.30
2022-10-10T06:43:28.483Z,2.40
2022-10-10T06:45:56.580Z,2.40
2022-10-10T06:48:24.943Z,1.92
2022-10-10T06:51:01.297Z,2.58
2022-10-10T06:53:29.676Z,1.98
2022-10-10T06:55:58.036Z,2.13
2022-10-10T06:58:30.285Z,2.28
2022-10-10T07:01:01.047Z,2.33
2022-10-10T07:03:31.556Z,2.58
2022-10-10T07:06:01.085Z,2.30
2022-10-10T07:08:29.951Z,2.78
2022-10-10T07:10:57.831Z,2.83
2022-10-10T07:13:25.693Z,2.83
2022-10-10T07:15:53.810Z,2.55
2022-10-10T07:18:22.343Z,2.70
2022-10-10T07:20:50.138Z,2.95
2022-10-10T07:23:18.110Z,2.80
2022-10-10T07:25:46.126Z,2.35
2022-10-10T07:28:14.210Z,2.33
2022-10-10T07:30:46.060Z,2.60
2022-10-10T07:33:15.705Z,2.35
2022-10-10T07:35:43.903Z,2.60
2022-10-10T07:38:12.561Z,2.60
2022-10-10T07:40:41.814Z,3.03
2022-10-10T07:43:10.007Z,2.53
2022-10-10T07:45:37.862Z,2.90
2022-10-10T07:48:06.774Z,3.03
2022-10-10T07:50:34.762Z,2.80
2022-10-10T07:53:02.647Z,2.50
2022-10-10T07:55:30.498Z,2.47
2022-10-10T07:57:59.981Z,3.72
2022-10-10T08:00:27.970Z,3.00
2022-10-10T08:02:55.836Z,2.90
2022-10-10T08:05:23.696Z,2.60
2022-10-10T08:07:51.823Z,3.10
2022-10-10T08:10:19.919Z,2.30
2022-10-10T08:12:48.503Z,3.05
2022-10-10T08:15:16.575Z,2.58
2022-10-10T08:17:44.331Z,2.63
2022-10-10T08:20:12.300Z,2.50
2022-10-10T08:22:40.291Z,2.45
2022-10-10T08:25:08.664Z,2.70
2022-10-10T08:27:36.510Z,2.83
2022-10-10T08:30:04.857Z,2.50
2022-10-10T08:32:32.893Z,2.80
2022-10-10T08:35:00.879Z,2.40
2022-10-10T08:37:32.755Z,2.63
2022-10-10T08:40:04.855Z,3.00
2022-10-10T08:42:49.083Z,2.72
2022-10-10T08:45:28.260Z,2.38
2022-10-10T08:48:10.468Z,2.67
2022-10-10T08:50:52.503Z,2.20
2022-10-10T08:53:37.219Z,2.50
2022-10-10T08:56:07.783Z,2.00
2022-10-10T08:58:41.980Z,1.50
2022-10-10T09:01:23.785Z,1.80
2022-10-10T09:03:56.509Z,1.80
2022-10-10T09:06:52.754Z,1.95
2022-10-10T09:09:30.932Z,1.33
2022-10-10T09:12:27.807Z,2.45
2022-10-10T09:15:29.804Z,1.52
2022-10-10T09:17:57.506Z,2.10
2022-10-10T09:20:30.851Z,1.83
2022-10-10T09:23:08.131Z,2.17
2022-10-10T09:25:42.814Z,1.92
2022-10-10T09:28:41.278Z,1.88
2022-10-10T09:31:43.756Z,1.73
2022-10-10T09:34:15.913Z,1.63
2022-10-10T09:36:44.079Z,1.35
2022-10-10T09:39:44.218Z,1.30
2022-10-10T09:42:17.606Z,1.27
2022-10-10T09:44:45.555Z,1.17
2022-10-10T09:47:18.054Z,1.60
2022-10-10T09:49:46.066Z,1.83
2022-10-10T09:52:23.025Z,1.77
2022-10-10T09:54:53.223Z,1.70
2022-10-10T09:57:23.665Z,2.22
2022-10-10T09:59:51.603Z,1.95
2022-10-10T10:02:21.025Z,2.03
2022-10-10T10:04:49.820Z,1.75
2022-10-10T10:07:24.836Z,1.88
2022-10-10T10:10:00.918Z,1.60
2022-10-10T10:12:40.251Z,2.00
2022-10-10T10:15:24.648Z,1.58
2022-10-10T10:18:12.423Z,1.63
2022-10-10T10:20:42.195Z,1.67
2022-10-10T10:23:34.957Z,1.65
2022-10-10T10:26:09.711Z,1.60
2022-10-10T10:28:41.423Z,1.73
2022-10-10T10:31:42.509Z,1.70
2022-10-10T10:34:21.418Z,1.70
2022-10-10T10:36:52.387Z,1.77
2022-10-10T10:39:43.779Z,2.00
2022-10-10T10:42:23.512Z,2.00
2022-10-10T10:47:39.015Z,1.63
2022-10-10T10:50:23.945Z,1.70
2022-10-10T10:53:03.617Z,1.50
2022-10-10T10:55:48.655Z,1.30
2022-10-10T11:01:56.057Z,1.40
2022-10-10T11:05:18.082Z,1.38
2022-10-10T11:07:24.359Z,1.60
2022-10-10T11:10:01.501Z,1.80
2022-10-10T11:12:38.195Z,1.50
2022-10-10T11:15:19.803Z,2.42
2022-10-10T11:18:01.842Z,1.83
2022-10-10T11:20:37.107Z,2.53
2022-10-10T11:23:19.995Z,1.40
2022-10-10T11:26:06.786Z,1.10
2022-10-10T11:31:46.009Z,1.15
2022-10-10T11:34:20.206Z,1.15
2022-10-10T11:36:48.097Z,1.77
2022-10-10T11:39:27.530Z,1.15
2022-10-10T11:42:03.103Z,1.63
2022-10-10T11:44:40.914Z,1.50
2022-10-10T11:47:31.245Z,1.20
2022-10-10T11:50:18.486Z,1.00
2022-10-10T11:53:07.883Z,1.30
2022-10-10T11:55:59.842Z,1.70
2022-10-10T11:58:54.696Z,1.20
2022-10-10T12:01:29.874Z,1.65
2022-10-10T12:03:57.778Z,1.20
2022-10-10T12:06:31.101Z,1.05
2022-10-10T12:09:19.173Z,1.30
2022-10-10T12:12:01.427Z,1.50
2022-10-10T12:14:31.538Z,1.20
2022-10-10T12:17:00.059Z,1.75
2022-10-10T12:19:29.370Z,1.10
2022-10-10T12:22:01.272Z,1.60
2022-10-10T12:24:38.687Z,1.20
2022-10-10T12:27:09.723Z,1.20
2022-10-10T12:29:57.294Z,1.20
2022-10-10T12:32:44.424Z,1.45
2022-10-10T12:35:36.417Z,1.83
2022-10-10T12:38:07.723Z,1.52
2022-10-10T12:40:56.160Z,1.30
2022-10-10T12:43:48.136Z,1.30
2022-10-10T12:46:20.197Z,1.40
2022-10-10T12:49:02.241Z,1.30
2022-10-10T12:51:32.342Z,1.80
2022-10-10T12:54:02.770Z,1.23
2022-10-10T12:56:40.515Z,1.65
2022-10-10T12:59:23.846Z,1.23
2022-10-10T13:01:57.579Z,2.30
2022-10-10T13:04:26.804Z,1.20
2022-10-10T13:06:56.644Z,1.20
2022-10-10T13:09:33.945Z,1.65
2022-10-10T13:12:07.557Z,1.25
2022-10-10T13:14:41.430Z,1.30
2022-10-10T13:17:29.768Z,1.38
2022-10-10T13:19:59.946Z,1.42
2022-10-10T13:22:30.408Z,1.42
2022-10-10T13:24:59.984Z,1.42
2022-10-10T13:27:32.503Z,1.27
2022-10-10T13:30:00.739Z,1.20
2022-10-10T13:32:32.307Z,1.55
2022-10-10T13:35:06.283Z,1.15
2022-10-10T13:37:34.356Z,1.30
2022-10-10T13:40:02.398Z,1.15
2022-10-10T13:42:31.666Z,1.20
2022-10-10T13:45:00.645Z,1.40
2022-10-10T13:47:46.474Z,1.70
2022-10-10T13:50:29.273Z,1.70
2022-10-10T13:53:24.013Z,1.05
2022-10-10T13:55:59.421Z,1.17
2022-10-10T13:58:42.361Z,1.50
2022-10-10T14:01:37.749Z,1.00
2022-10-10T14:04:40.916Z,1.52
2022-10-10T14:07:12.448Z,1.65
2022-10-10T14:09:48.920Z,1.00
2022-10-10T14:12:29.473Z,1.48
2022-10-10T14:14:59.413Z,1.20
2022-10-10T14:17:28.729Z,1.45
2022-10-10T14:19:57.075Z,1.92
2022-10-10T14:22:24.846Z,1.30
2022-10-10T14:24:52.526Z,1.33
2022-10-10T14:27:20.259Z,1.25
2022-10-10T14:29:48.704Z,1.13
2022-10-10T14:32:17.090Z,1.20
2022-10-10T14:34:45.453Z,1.65
2022-10-10T14:37:19.767Z,1.20
2022-10-10T14:39:47.776Z,1.38
2022-10-10T14:42:17.623Z,1.30
2022-10-10T14:44:45.422Z,1.20
2022-10-10T14:47:21.634Z,1.50
2022-10-10T14:49:49.738Z,1.20
2022-10-10T14:52:17.575Z,1.50
2022-10-10T14:54:45.453Z,1.42
2022-10-10T14:57:14.733Z,1.15
2022-10-10T14:59:46.389Z,1.05
2022-10-10T15:02:19.227Z,1.58
2022-10-10T15:04:47.257Z,1.25
2022-10-10T15:07:15.736Z,1.27
2022-10-10T15:10:27.541Z,1.30
2022-10-10T15:12:43.958Z,1.27
2022-10-10T15:15:13.923Z,1.30
2022-10-10T15:17:42.412Z,1.20
2022-10-10T15:20:13.028Z,1.50
2022-10-10T15:22:41.422Z,1.58
2022-10-10T15:25:09.959Z,1.65
2022-10-10T15:27:38.620Z,1.42
2022-10-10T15:30:07.390Z,1.48
2022-10-10T15:32:39.704Z,1.20
2022-10-10T15:35:08.195Z,1.20
2022-10-10T15:37:36.103Z,1.10
2022-10-10T15:40:04.100Z,1.33
2022-10-10T15:42:31.956Z,1.38
2022-10-10T15:44:59.942Z,1.17
2022-10-10T15:47:27.772Z,1.20
2022-10-10T15:49:55.597Z,1.10
2022-10-10T15:52:23.469Z,1.10
2022-10-10T15:54:51.458Z,1.17
2022-10-10T15:57:20.080Z,1.17
2022-10-10T15:59:48.225Z,1.23
2022-10-10T16:02:16.558Z,1.05
2022-10-10T16:04:44.826Z,2.15
2022-10-10T16:07:28.334Z,1.10
2022-10-10T16:09:59.154Z,1.35
2022-10-10T16:12:27.316Z,1.23
2022-10-10T16:14:55.373Z,1.98
2022-10-10T16:17:23.879Z,1.42
2022-10-10T16:19:51.958Z,1.45
2022-10-10T16:22:20.100Z,1.75
2022-10-10T16:25:10.220Z,1.70
2022-10-10T16:27:37.642Z,1.50
2022-10-10T16:30:06.646Z,1.73
2022-10-10T16:32:39.354Z,1.50
2022-10-10T16:35:10.565Z,1.50
2022-10-10T16:37:38.819Z,2.08
2022-10-10T16:40:07.547Z,1.33
2022-10-10T16:42:35.542Z,1.83
2022-10-10T16:45:03.284Z,1.38
2022-10-10T16:47:31.085Z,1.40
2022-10-10T16:49:58.798Z,1.40
2022-10-10T16:52:26.426Z,1.80
2022-10-10T16:54:54.103Z,2.22
2022-10-10T16:57:21.941Z,1.30
2022-10-10T16:59:49.693Z,1.40
2022-10-10T17:02:17.263Z,1.83
2022-10-10T17:04:44.999Z,1.90
2022-10-10T17:07:12.794Z,1.45
2022-10-10T17:09:40.949Z,1.30
2022-10-10T17:12:08.870Z,1.30
2022-10-10T17:14:36.641Z,1.85
2022-10-10T17:17:13.366Z,2.03
2022-10-10T17:19:41.445Z,1.20
2022-10-10T17:22:09.065Z,1.45
2022-10-10T17:24:36.770Z,1.17
2022-10-10T17:27:05.247Z,1.40
2022-10-10T17:29:32.969Z,1.65
2022-10-10T17:32:05.910Z,1.48
2022-10-10T17:34:34.625Z,1.30
2022-10-10T17:37:02.983Z,1.60
2022-10-10T17:39:31.136Z,1.40
2022-10-10T17:41:59.383Z,1.40
2022-10-10T17:44:27.074Z,1.42
2022-10-10T17:46:54.873Z,1.55
2022-10-10T17:49:22.666Z,1.50
2022-10-10T17:51:50.458Z,1.23
2022-10-10T17:54:18.583Z,1.60
2022-10-10T17:56:46.456Z,1.73
2022-10-10T17:59:14.501Z,1.40
2022-10-10T18:01:42.414Z,1.48
2022-10-10T18:04:11.020Z,1.20
2022-10-10T18:06:39.070Z,1.67
2022-10-10T18:09:07.660Z,1.20
2022-10-10T18:11:35.592Z,1.80
2022-10-10T18:14:03.268Z,1.40
2022-10-10T18:16:36.686Z,1.30
2022-10-10T18:19:07.559Z,0.95
2022-10-10T18:21:35.813Z,1.48
2022-10-10T18:24:04.065Z,1.20
2022-10-10T18:26:36.625Z,1.38
2022-10-10T18:29:05.175Z,1.00
2022-10-10T18:31:34.557Z,1.50
2022-10-10T18:34:04.128Z,0.95
2022-10-10T18:36:34.646Z,1.50
2022-10-10T18:39:06.834Z,1.40
2022-10-10T18:41:35.186Z,1.20
2022-10-10T18:44:08.760Z,1.60
2022-10-10T18:46:37.071Z,1.50
2022-10-10T18:49:06.284Z,1.70
2022-10-10T18:51:34.508Z,1.33
2022-10-10T18:54:05.077Z,1.65
2022-10-10T18:56:33.939Z,1.50
2022-10-10T18:59:05.155Z,2.00
2022-10-10T19:01:37.043Z,1.52
2022-10-10T19:04:06.230Z,1.48
2022-10-10T19:06:34.938Z,2.10
2022-10-10T19:09:04.167Z,1.85
2022-10-10T19:11:36.104Z,2.05
2022-10-10T19:14:06.132Z,1.70
2022-10-10T19:16:34.240Z,1.48
2022-10-10T19:19:03.263Z,1.63
2022-10-10T19:21:33.705Z,1.63
2022-10-10T19:24:02.681Z,1.73
2022-10-10T19:26:33.579Z,1.40
2022-10-10T19:29:06.653Z,1.50
2022-10-10T19:31:38.592Z,1.33
2022-10-10T19:34:06.629Z,1.40
2022-10-10T19:36:38.357Z,1.33
2022-10-10T19:39:08.384Z,1.60
2022-10-10T19:41:37.486Z,1.27
2022-10-10T19:44:05.720Z,1.30
2022-10-10T19:46:36.635Z,1.42
2022-10-10T19:49:05.014Z,1.70
2022-10-10T19:51:32.760Z,1.30
2022-10-10T19:54:00.616Z,1.60
2022-10-10T19:56:28.937Z,1.60
2022-10-10T19:58:58.481Z,1.83
2022-10-10T20:01:29.568Z,1.60
2022-10-10T20:03:58.433Z,1.50
2022-10-10T20:06:26.497Z,1.55
2022-10-10T20:08:54.567Z,1.38
2022-10-10T20:11:23.582Z,2.17
2022-10-10T20:13:55.830Z,1.83
2022-10-10T20:16:25.579Z,2.50
2022-10-10T20:18:54.037Z,1.92
2022-10-10T20:21:29.324Z,2.28
2022-10-10T20:23:58.865Z,3.10
2022-10-10T20:26:27.098Z,2.50
2022-10-10T20:28:56.335Z,2.33
2022-10-10T20:31:26.873Z,2.08
2022-10-10T20:33:58.517Z,2.60
2022-10-10T20:36:27.224Z,2.95
2022-10-10T20:38:58.909Z,2.40
2022-10-10T20:41:28.047Z,2.03
2022-10-10T20:44:00.541Z,1.92
2022-10-10T20:46:30.929Z,1.80
2022-10-10T20:49:00.124Z,1.52
2022-10-10T20:51:28.590Z,2.13
2022-10-10T20:53:58.999Z,1.80
2022-10-10T20:56:28.024Z,2.15
2022-10-10T20:58:55.881Z,1.83
2022-10-10T21:01:25.737Z,1.40
2022-10-10T21:03:53.582Z,1.77
2022-10-10T21:06:26.472Z,1.52
2022-10-10T21:08:54.930Z,1.80
2022-10-10T21:11:23.993Z,1.42
2022-10-10T21:13:56.379Z,2.03
2022-10-10T21:16:30.241Z,1.70
2022-10-10T21:18:58.858Z,1.92
2022-10-10T21:21:29.649Z,1.60
2022-10-10T21:23:58.220Z,1.35
2022-10-10T21:26:27.606Z,1.15
2022-10-10T21:28:56.363Z,1.20
2022-10-10T21:31:36.490Z,1.27
2022-10-10T21:34:06.100Z,0.98
2022-10-10T21:36:37.720Z,1.48
2022-10-10T21:39:07.132Z,1.40
2022-10-10T21:41:35.392Z,1.27
2022-10-10T21:44:03.209Z,1.30
2022-10-10T21:46:36.200Z,1.17
2022-10-10T21:49:11.313Z,1.17
2022-10-10T21:51:45.757Z,1.20
2022-10-10T21:54:14.160Z,1.30
2022-10-10T21:56:42.320Z,1.20
2022-10-10T21:59:11.424Z,1.30
2022-10-10T22:01:39.187Z,1.60
2022-10-10T22:04:07.171Z,1.88
2022-10-10T22:06:34.833Z,1.67
2022-10-10T22:09:03.127Z,1.30
2022-10-10T22:11:33.187Z,1.27
2022-10-10T22:14:02.687Z,1.20
2022-10-10T22:16:34.185Z,1.52
2022-10-10T22:19:04.459Z,1.40
2022-10-10T22:21:34.807Z,1.02
2022-10-10T22:24:05.452Z,1.10
2022-10-10T22:26:34.005Z,1.33
2022-10-10T22:29:02.010Z,1.17
2022-10-10T22:31:30.331Z,1.05
2022-10-10T22:33:58.120Z,1.58
2022-10-10T22:36:26.025Z,1.27
2022-10-10T22:38:53.860Z,1.50
2022-10-10T22:41:21.721Z,1.10
2022-10-10T22:43:51.755Z,1.25
2022-10-10T22:46:19.468Z,1.23
2022-10-10T22:48:47.720Z,1.10
2022-10-10T22:51:18.008Z,0.95
2022-10-10T22:53:46.967Z,0.90
2022-10-10T22:56:16.578Z,1.20
2022-10-10T22:58:44.528Z,1.13
2022-10-10T23:01:21.113Z,1.50
2022-10-10T23:03:49.159Z,1.30
2022-10-10T23:06:17.421Z,1.00
2022-10-10T23:08:45.149Z,1.92
2022-10-10T23:11:12.865Z,1.40
2022-10-10T23:13:40.597Z,1.67
2022-10-10T23:16:09.201Z,1.02
2022-10-10T23:18:37.026Z,1.50
2022-10-10T23:21:05.336Z,1.20
2022-10-10T23:23:33.155Z,1.50
2022-10-10T23:26:04.336Z,1.30
2022-10-10T23:28:32.623Z,1.17
2022-10-10T23:31:05.589Z,0.95
2022-10-10T23:33:36.747Z,1.20
2022-10-10T23:38:34.812Z,1.20
2022-10-10T23:41:02.640Z,1.40
2022-10-10T23:43:30.555Z,1.88
2022-10-10T23:45:58.533Z,1.15
2022-10-10T23:48:26.488Z,1.33
2022-10-10T23:50:54.283Z,1.40
2022-10-10T23:53:22.430Z,1.75
2022-10-10T23:55:50.339Z,1.17
2022-10-10T23:58:18.285Z,1.10
